Bass River, Massachusetts
Current Conditions -  °F | °C
As of 2:56 AM on Thursday 18 Dec 2014 (Local Time) from KHYA Reporting Station
Overcast Overcast  
Wind Chill:   Ceiling: 6500
Heat Index:   Visibility: 10mi
Dew Point: -1°   Wind: 14mph
Humidity: 70%   Direction: 270°W
Pressure: 29.71"   Gusts: 21mph
Location:  41.6739°N, 70.1961°W
Report Text: KHYA 180756Z 27012G18KT 10SM OVC065 04/M01 A2971 RMK AO2 SLP063 T00441006
Loading
Personal Weather Stations






























Interactive Weather Map New forecast layout! Learn more

10-Day Weather Forecast

Advertisements
Track Severe Weather on mobile